createdAt,value
2018-11-13T00:00:48.749Z,13.01
2018-11-13T00:01:48.743Z,13.04
2018-11-13T00:02:48.723Z,13.12
2018-11-13T00:03:48.743Z,13.08
2018-11-13T00:04:48.706Z,13.15
2018-11-13T00:05:48.692Z,13.20
2018-11-13T00:06:48.698Z,13.17
2018-11-13T00:07:48.663Z,13.15
2018-11-13T00:08:48.653Z,13.05
2018-11-13T00:09:48.642Z,13.07
2018-11-13T00:10:48.637Z,13.04
2018-11-13T00:11:48.627Z,13.08
2018-11-13T00:12:48.607Z,13.08
2018-11-13T00:13:48.593Z,13.10
2018-11-13T00:14:48.585Z,13.07
2018-11-13T00:15:48.577Z,13.22
2018-11-13T00:16:48.586Z,13.07
2018-11-13T00:17:48.558Z,13.15
2018-11-13T00:18:48.537Z,13.08
2018-11-13T00:19:48.531Z,13.17
2018-11-13T00:20:48.513Z,13.19
2018-11-13T00:21:48.512Z,13.25
2018-11-13T00:22:48.492Z,13.20
2018-11-13T00:23:48.480Z,13.28
2018-11-13T00:24:48.470Z,13.26
2018-11-13T00:25:48.456Z,13.26
2018-11-13T00:26:48.470Z,13.28
2018-11-13T00:27:48.436Z,13.26
2018-11-13T00:28:48.439Z,13.38
2018-11-13T00:29:48.414Z,13.29
2018-11-13T00:30:48.407Z,13.39
2018-11-13T00:31:48.402Z,13.33
2018-11-13T00:32:48.379Z,13.23
2018-11-13T00:33:48.369Z,13.23
2018-11-13T00:34:48.364Z,13.32
2018-11-13T00:35:48.347Z,13.28
2018-11-13T00:36:48.342Z,13.20
2018-11-13T00:37:48.322Z,13.23
2018-11-13T00:38:48.317Z,13.20
2018-11-13T00:39:48.307Z,13.25
2018-11-13T00:40:48.301Z,13.28
2018-11-13T00:41:48.285Z,13.26
2018-11-13T00:42:48.266Z,13.25
2018-11-13T00:43:48.254Z,13.26
2018-11-13T00:44:48.243Z,13.23
2018-11-13T00:45:48.265Z,13.23
2018-11-13T00:46:48.234Z,13.29
2018-11-13T00:47:48.206Z,13.25
2018-11-13T00:48:48.202Z,13.32
2018-11-13T00:49:48.191Z,13.33
2018-11-13T00:50:48.172Z,13.29
2018-11-13T00:51:48.179Z,13.26
2018-11-13T00:52:48.151Z,13.28
2018-11-13T00:53:48.156Z,13.28
2018-11-13T00:54:48.159Z,13.23
2018-11-13T00:55:48.115Z,13.41
2018-11-13T00:56:48.104Z,13.30
2018-11-13T00:57:48.185Z,13.32
2018-11-13T00:58:48.079Z,13.28
2018-11-13T00:59:48.070Z,13.23
2018-11-13T01:00:48.117Z,13.36
2018-11-13T01:01:48.046Z,13.28
2018-11-13T01:02:48.044Z,13.22
2018-11-13T01:03:48.022Z,13.22
2018-11-13T01:04:48.020Z,13.17
2018-11-13T01:05:48.035Z,13.28
2018-11-13T01:06:48.000Z,13.23
2018-11-13T01:07:48.059Z,13.23
2018-11-13T01:08:47.966Z,13.23
2018-11-13T01:09:47.954Z,13.23
2018-11-13T01:10:47.942Z,13.25
2018-11-13T01:11:47.958Z,13.22
2018-11-13T01:12:47.930Z,13.22
2018-11-13T01:13:47.905Z,13.25
2018-11-13T01:14:47.897Z,13.26
2018-11-13T01:15:47.891Z,13.28
2018-11-13T01:16:47.870Z,13.28
2018-11-13T01:17:47.868Z,13.26
2018-11-13T01:18:47.856Z,13.28
2018-11-13T01:19:47.847Z,13.28
2018-11-13T01:20:47.823Z,13.25
2018-11-13T01:21:47.825Z,13.28
2018-11-13T01:22:47.826Z,13.25
2018-11-13T01:23:47.807Z,13.38
2018-11-13T01:24:47.782Z,13.42
2018-11-13T01:25:47.770Z,13.28
2018-11-13T01:26:47.759Z,13.26
2018-11-13T01:27:47.752Z,13.23
2018-11-13T01:28:47.733Z,13.32
2018-11-13T01:29:47.721Z,13.30
2018-11-13T01:30:47.709Z,13.38
2018-11-13T01:31:47.697Z,13.36
2018-11-13T01:32:47.703Z,13.30
2018-11-13T01:33:47.689Z,13.22
2018-11-13T01:34:47.679Z,13.26
2018-11-13T01:35:47.657Z,13.26
2018-11-13T01:36:47.642Z,13.23
2018-11-13T01:37:47.640Z,13.23
2018-11-13T01:38:47.631Z,13.26
2018-11-13T01:39:47.604Z,13.25
2018-11-13T01:40:47.592Z,13.11
2018-11-13T01:41:47.932Z,13.15
2018-11-13T01:42:47.581Z,13.19
2018-11-13T01:43:47.559Z,13.20
2018-11-13T01:44:47.559Z,13.17
2018-11-13T01:45:47.550Z,13.22
2018-11-13T01:46:47.530Z,13.22
2018-11-13T01:47:47.523Z,13.12
2018-11-13T01:48:47.507Z,13.22
2018-11-13T01:49:47.492Z,13.22
2018-11-13T01:50:47.481Z,13.05
2018-11-13T01:51:47.466Z,13.14
2018-11-13T01:52:47.465Z,13.15
2018-11-13T01:53:47.452Z,13.20
2018-11-13T01:54:47.451Z,13.07
2018-11-13T01:55:47.429Z,13.07
2018-11-13T01:56:47.430Z,13.10
2018-11-13T01:57:47.395Z,13.07
2018-11-13T01:58:47.393Z,13.07
2018-11-13T01:59:47.386Z,13.07
2018-11-13T02:00:47.365Z,13.10
2018-11-13T02:01:47.354Z,13.08
2018-11-13T02:02:47.356Z,13.11
2018-11-13T02:03:47.337Z,13.08
2018-11-13T02:04:47.321Z,13.08
2018-11-13T02:05:47.305Z,13.11
2018-11-13T02:06:47.295Z,13.11
2018-11-13T02:07:47.289Z,13.05
2018-11-13T02:08:47.293Z,13.07
2018-11-13T02:09:47.259Z,12.96
2018-11-13T02:10:47.245Z,13.08
2018-11-13T02:11:47.233Z,13.07
2018-11-13T02:12:47.223Z,12.95
2018-11-13T02:13:47.226Z,13.10
2018-11-13T02:14:47.199Z,13.03
2018-11-13T02:15:47.194Z,13.04
2018-11-13T02:16:47.180Z,13.00
2018-11-13T02:17:47.169Z,12.97
2018-11-13T02:18:47.165Z,13.07
2018-11-13T02:19:47.140Z,13.10
2018-11-13T02:20:47.130Z,13.05
2018-11-13T02:21:47.174Z,13.00
2018-11-13T02:22:47.105Z,13.00
2018-11-13T02:23:47.106Z,13.11
2018-11-13T02:24:47.098Z,13.10
2018-11-13T02:25:47.074Z,13.05
2018-11-13T02:26:47.062Z,13.03
2018-11-13T02:27:47.050Z,13.07
2018-11-13T02:28:47.072Z,13.00
2018-11-13T02:29:47.031Z,12.92
2018-11-13T02:30:47.035Z,13.04
2018-11-13T02:31:47.006Z,12.95
2018-11-13T02:32:46.994Z,12.96
2018-11-13T02:33:46.997Z,12.95
2018-11-13T02:34:46.978Z,13.11
2018-11-13T02:35:46.967Z,13.08
2018-11-13T02:36:46.947Z,13.12
2018-11-13T02:37:46.946Z,13.05
2018-11-13T02:38:46.945Z,13.04
2018-11-13T02:39:46.918Z,13.11
2018-11-13T02:40:46.903Z,13.05
2018-11-13T02:41:46.908Z,13.12
2018-11-13T02:42:46.881Z,13.11
2018-11-13T02:43:46.874Z,13.08
2018-11-13T02:44:46.866Z,13.10
2018-11-13T02:45:46.848Z,13.11
2018-11-13T02:46:46.836Z,13.08
2018-11-13T02:47:46.825Z,13.07
2018-11-13T02:48:46.810Z,13.11
2018-11-13T02:49:46.811Z,13.08
2018-11-13T02:50:46.787Z,13.11
2018-11-13T02:51:46.799Z,13.00
2018-11-13T02:52:46.776Z,13.07
2018-11-13T02:53:46.760Z,13.08
2018-11-13T02:54:46.755Z,13.04
2018-11-13T02:55:46.737Z,13.05
2018-11-13T02:56:46.721Z,12.95
2018-11-13T02:57:46.709Z,13.04
2018-11-13T02:58:46.709Z,12.93
2018-11-13T02:59:46.719Z,12.92
2018-11-13T03:00:46.672Z,12.90
2018-11-13T03:01:46.660Z,12.89
2018-11-13T03:02:46.649Z,12.87
2018-11-13T03:03:46.649Z,12.89
2018-11-13T03:04:46.647Z,12.85
2018-11-13T03:05:46.615Z,12.86
2018-11-13T03:06:46.604Z,12.78
2018-11-13T03:07:46.593Z,12.83
2018-11-13T03:08:46.584Z,12.83
2018-11-13T03:09:46.588Z,12.82
2018-11-13T03:10:46.569Z,12.83
2018-11-13T03:11:46.544Z,12.82
2018-11-13T03:12:46.533Z,12.75
2018-11-13T03:13:46.590Z,12.82
2018-11-13T03:14:46.527Z,12.72
2018-11-13T03:15:46.528Z,12.70
2018-11-13T03:16:46.494Z,12.72
2018-11-13T03:17:46.476Z,12.68
2018-11-13T03:18:46.465Z,12.70
2018-11-13T03:19:46.468Z,12.62
2018-11-13T03:20:46.444Z,12.62
2018-11-13T03:21:46.432Z,12.57
2018-11-13T03:22:46.429Z,12.60
2018-11-13T03:23:46.406Z,12.60
2018-11-13T03:24:46.417Z,12.59
2018-11-13T03:25:46.385Z,12.57
2018-11-13T03:26:46.392Z,12.59
2018-11-13T03:27:46.363Z,12.42
2018-11-13T03:28:46.348Z,12.49
2018-11-13T03:29:46.349Z,12.59
2018-11-13T03:30:46.332Z,12.65
2018-11-13T03:31:46.319Z,12.60
2018-11-13T03:32:46.305Z,12.59
2018-11-13T03:33:46.298Z,12.59
2018-11-13T03:34:46.293Z,12.62
2018-11-13T03:35:46.269Z,12.62
2018-11-13T03:36:46.258Z,12.53
2018-11-13T03:37:46.264Z,12.67
2018-11-13T03:38:46.240Z,12.68
2018-11-13T03:39:46.253Z,12.64
2018-11-13T03:40:46.213Z,12.54
2018-11-13T03:41:46.205Z,12.67
2018-11-13T03:42:46.197Z,12.59
2018-11-13T03:43:46.181Z,12.68
2018-11-13T03:44:46.171Z,12.53
2018-11-13T03:45:46.170Z,12.60
2018-11-13T03:46:46.148Z,12.60
2018-11-13T03:47:46.134Z,12.60
2018-11-13T03:48:46.134Z,12.54
2018-11-13T03:49:46.120Z,12.60
2018-11-13T03:50:46.112Z,12.57
2018-11-13T03:51:46.089Z,12.57
2018-11-13T03:52:46.076Z,12.64
2018-11-13T03:53:46.067Z,12.56
2018-11-13T03:54:46.051Z,12.56
2018-11-13T03:55:46.057Z,12.67
2018-11-13T03:56:46.033Z,12.67
2018-11-13T03:57:46.017Z,12.59
2018-11-13T03:58:46.012Z,12.60
2018-11-13T03:59:46.007Z,12.59
2018-11-13T04:00:46.004Z,12.49
2018-11-13T04:01:45.973Z,12.52
2018-11-13T04:02:45.969Z,12.45
2018-11-13T04:03:45.953Z,12.62
2018-11-13T04:04:45.953Z,12.53
2018-11-13T04:05:45.955Z,12.53
2018-11-13T04:06:45.918Z,12.59
2018-11-13T04:07:45.907Z,12.57
2018-11-13T04:08:45.906Z,12.57
2018-11-13T04:09:45.877Z,12.60
2018-11-13T04:10:45.888Z,12.59
2018-11-13T04:11:45.857Z,12.67
2018-11-13T04:12:45.847Z,12.74
2018-11-13T04:13:45.848Z,12.70
2018-11-13T04:14:45.838Z,12.60
2018-11-13T04:15:45.823Z,12.71
2018-11-13T04:16:45.815Z,12.68
2018-11-13T04:17:45.796Z,12.60
2018-11-13T04:18:45.784Z,12.56
2018-11-13T04:19:45.797Z,12.60
2018-11-13T04:20:45.774Z,12.64
2018-11-13T04:21:45.742Z,12.53
2018-11-13T04:22:45.730Z,12.67
2018-11-13T04:23:45.716Z,12.57
2018-11-13T04:24:45.762Z,12.57
2018-11-13T04:25:45.710Z,12.62
2018-11-13T04:26:45.702Z,12.68
2018-11-13T04:27:45.674Z,12.59
2018-11-13T04:28:45.676Z,12.62
2018-11-13T04:29:45.647Z,12.70
2018-11-13T04:30:45.746Z,12.70
2018-11-13T04:31:45.641Z,12.71
2018-11-13T04:32:45.612Z,12.71
2018-11-13T04:33:45.615Z,12.70
2018-11-13T04:34:45.589Z,12.71
2018-11-13T04:35:45.588Z,12.59
2018-11-13T04:36:45.573Z,12.65
2018-11-13T04:37:45.554Z,12.67
2018-11-13T04:38:45.548Z,12.57
2018-11-13T04:39:45.532Z,12.64
2018-11-13T04:40:45.537Z,12.54
2018-11-13T04:41:45.515Z,12.56
2018-11-13T04:42:45.499Z,12.60
2018-11-13T04:43:45.485Z,12.65
2018-11-13T04:44:45.486Z,12.60
2018-11-13T04:45:45.464Z,12.57
2018-11-13T04:46:45.460Z,12.56
2018-11-13T04:47:45.438Z,12.54
2018-11-13T04:48:45.436Z,12.52
2018-11-13T04:49:45.421Z,12.56
2018-11-13T04:50:45.405Z,12.50
2018-11-13T04:51:45.523Z,12.56
2018-11-13T04:52:45.383Z,12.47
2018-11-13T04:53:45.379Z,12.53
2018-11-13T04:54:45.363Z,12.46
2018-11-13T04:55:45.355Z,12.50
2018-11-13T04:56:45.349Z,12.52
2018-11-13T04:57:45.322Z,12.42
2018-11-13T04:58:45.312Z,12.53
2018-11-13T04:59:45.310Z,12.49
2018-11-13T05:00:45.289Z,12.53
2018-11-13T05:01:45.300Z,12.57
2018-11-13T05:02:45.335Z,12.56
2018-11-13T05:03:45.256Z,12.62
2018-11-13T05:04:45.245Z,12.50
2018-11-13T05:05:45.243Z,12.52
2018-11-13T05:06:45.237Z,12.56
2018-11-13T05:07:45.211Z,12.49
2018-11-13T05:08:45.202Z,12.54
2018-11-13T05:09:45.186Z,12.62
2018-11-13T05:10:45.178Z,12.56
2018-11-13T05:11:45.188Z,12.50
2018-11-13T05:12:45.166Z,12.52
2018-11-13T05:13:45.140Z,12.47
2018-11-13T05:14:45.129Z,12.59
2018-11-13T05:15:45.117Z,12.52
2018-11-13T05:16:45.132Z,12.53
2018-11-13T05:17:45.118Z,12.60
2018-11-13T05:18:45.091Z,12.50
2018-11-13T05:19:45.075Z,12.47
2018-11-13T05:20:45.063Z,12.50
2018-11-13T05:21:45.053Z,12.42
2018-11-13T05:22:45.057Z,12.56
2018-11-13T05:23:45.029Z,12.56
2018-11-13T05:24:45.014Z,12.56
2018-11-13T05:25:45.002Z,12.57
2018-11-13T05:26:44.992Z,12.47
2018-11-13T05:27:44.993Z,12.50
2018-11-13T05:28:44.981Z,12.56
2018-11-13T05:29:44.957Z,12.54
2018-11-13T05:30:44.946Z,12.50
2018-11-13T05:31:44.934Z,12.52
2018-11-13T05:32:44.932Z,12.42
2018-11-13T05:33:44.916Z,12.47
2018-11-13T05:34:44.923Z,12.54
2018-11-13T05:35:44.890Z,12.54
2018-11-13T05:36:44.880Z,12.52
2018-11-13T05:37:44.874Z,12.52
2018-11-13T05:38:44.871Z,12.49
2018-11-13T05:39:44.852Z,12.52
2018-11-13T05:40:44.855Z,12.53
2018-11-13T05:41:44.925Z,12.56
2018-11-13T05:42:44.820Z,12.53
2018-11-13T05:43:44.796Z,12.53
2018-11-13T05:44:44.784Z,12.47
2018-11-13T05:45:44.786Z,12.42
2018-11-13T05:46:44.764Z,12.50
2018-11-13T05:47:44.760Z,12.49
2018-11-13T05:48:44.738Z,12.49
2018-11-13T05:49:44.725Z,12.52
2018-11-13T05:50:44.720Z,12.49
2018-11-13T05:51:44.711Z,12.49
2018-11-13T05:52:44.701Z,12.42
2018-11-13T05:53:44.679Z,12.42
2018-11-13T05:54:44.670Z,12.39
2018-11-13T05:55:44.674Z,12.49
2018-11-13T05:56:44.658Z,12.47
2018-11-13T05:57:44.651Z,12.39
2018-11-13T05:58:44.625Z,12.46
2018-11-13T05:59:44.708Z,12.39
2018-11-13T06:00:44.605Z,12.42
2018-11-13T06:01:44.597Z,12.42
2018-11-13T06:02:44.598Z,12.49
2018-11-13T06:03:44.569Z,12.52
2018-11-13T06:04:44.557Z,12.45
2018-11-13T06:05:44.544Z,12.37
2018-11-13T06:06:44.549Z,12.47
2018-11-13T06:07:44.550Z,12.42
2018-11-13T06:08:44.699Z,12.46
2018-11-13T06:09:44.499Z,12.38
2018-11-13T06:10:44.492Z,12.39
2018-11-13T06:11:44.479Z,12.49
2018-11-13T06:12:44.490Z,12.38
2018-11-13T06:13:44.472Z,12.45
2018-11-13T06:14:44.461Z,12.45
2018-11-13T06:15:44.434Z,12.41
2018-11-13T06:16:44.428Z,12.39
2018-11-13T06:17:44.426Z,12.37
2018-11-13T06:18:44.412Z,12.41
2018-11-13T06:19:44.390Z,12.37
2018-11-13T06:20:44.389Z,12.32
2018-11-13T06:21:44.365Z,12.42
2018-11-13T06:22:44.373Z,12.42
2018-11-13T06:23:44.354Z,12.42
2018-11-13T06:24:44.335Z,12.39
2018-11-13T06:25:44.324Z,12.45
2018-11-13T06:26:44.306Z,12.39
2018-11-13T06:27:44.296Z,12.41
2018-11-13T06:28:44.295Z,12.42
2018-11-13T06:29:44.367Z,12.39
2018-11-13T06:30:44.265Z,12.41
2018-11-13T06:31:44.253Z,12.41
2018-11-13T06:32:44.240Z,12.39
2018-11-13T06:33:44.237Z,12.34
2018-11-13T06:34:44.216Z,12.46
2018-11-13T06:35:44.209Z,12.37
2018-11-13T06:36:44.203Z,12.37
2018-11-13T06:37:44.187Z,12.41
2018-11-13T06:38:44.208Z,12.35
2018-11-13T06:39:44.160Z,12.39
2018-11-13T06:40:44.150Z,12.46
2018-11-13T06:41:44.138Z,12.42
2018-11-13T06:42:44.128Z,12.46
2018-11-13T06:43:44.136Z,12.39
2018-11-13T06:44:44.106Z,12.45
2018-11-13T06:45:44.090Z,12.38
2018-11-13T06:46:44.088Z,12.35
2018-11-13T06:47:44.073Z,12.38
2018-11-13T06:48:44.068Z,12.29
2018-11-13T06:49:44.113Z,12.35
2018-11-13T06:50:44.039Z,12.35
2018-11-13T06:51:44.022Z,12.37
2018-11-13T06:52:44.023Z,12.35
2018-11-13T06:53:44.027Z,12.39
2018-11-13T06:54:43.989Z,12.35
2018-11-13T06:55:43.980Z,12.32
2018-11-13T06:56:44.016Z,12.34
2018-11-13T06:57:43.959Z,12.23
2018-11-13T06:58:43.959Z,12.19
2018-11-13T06:59:43.944Z,12.17
2018-11-13T07:00:43.922Z,12.20
2018-11-13T07:01:43.911Z,12.12
2018-11-13T07:02:43.900Z,12.17
2018-11-13T07:03:43.901Z,12.21
2018-11-13T07:04:43.877Z,12.19
2018-11-13T07:05:43.866Z,12.16
2018-11-13T07:06:43.900Z,12.10
2018-11-13T07:07:43.850Z,11.99
2018-11-13T07:08:43.847Z,11.99
2018-11-13T07:09:43.839Z,12.02
2018-11-13T07:10:43.834Z,12.05
2018-11-13T07:11:43.800Z,12.02
2018-11-13T07:12:43.790Z,12.05
2018-11-13T07:13:43.788Z,11.98
2018-11-13T07:14:43.765Z,12.04
2018-11-13T07:15:43.766Z,11.99
2018-11-13T07:16:43.757Z,11.98
2018-11-13T07:17:43.731Z,11.98
2018-11-13T07:18:43.731Z,11.96
2018-11-13T07:19:43.738Z,11.99
2018-11-13T07:20:43.697Z,11.99
2018-11-13T07:21:43.689Z,11.99
2018-11-13T07:22:43.687Z,12.01
2018-11-13T07:23:43.707Z,11.98
2018-11-13T07:24:43.666Z,11.99
2018-11-13T07:25:43.647Z,11.96
2018-11-13T07:26:43.634Z,11.99
2018-11-13T07:27:43.658Z,11.90
2018-11-13T07:28:43.609Z,11.91
2018-11-13T07:29:43.611Z,11.94
2018-11-13T07:30:43.595Z,11.98
2018-11-13T07:31:43.577Z,11.88
2018-11-13T07:32:43.569Z,11.98
2018-11-13T07:33:43.658Z,11.98
2018-11-13T07:34:43.557Z,11.99
2018-11-13T07:35:43.529Z,11.96
2018-11-13T07:36:43.531Z,12.01
2018-11-13T07:37:43.506Z,11.99
2018-11-13T07:38:43.498Z,12.01
2018-11-13T07:39:43.494Z,11.99
2018-11-13T07:40:43.476Z,12.01
2018-11-13T07:41:43.467Z,12.02
2018-11-13T07:42:43.449Z,11.98
2018-11-13T07:43:43.440Z,12.01
2018-11-13T07:44:43.437Z,11.99
2018-11-13T07:45:43.416Z,12.07
2018-11-13T07:46:43.492Z,12.09
2018-11-13T07:47:43.637Z,12.05
2018-11-13T07:48:43.383Z,12.05
2018-11-13T07:49:43.383Z,12.09
2018-11-13T07:50:43.365Z,12.09
2018-11-13T07:51:43.386Z,12.12
2018-11-13T07:52:43.340Z,12.20
2018-11-13T07:53:43.378Z,12.10
2018-11-13T07:54:43.328Z,12.12
2018-11-13T07:55:43.303Z,12.12
2018-11-13T07:56:43.315Z,12.07
2018-11-13T07:57:43.294Z,12.12
2018-11-13T07:58:43.272Z,12.02
2018-11-13T07:59:43.275Z,12.13
2018-11-13T08:00:43.265Z,12.05
2018-11-13T08:01:43.244Z,12.04
2018-11-13T08:02:43.225Z,12.20
2018-11-13T08:03:43.281Z,12.10
2018-11-13T08:04:43.204Z,12.19
2018-11-13T08:05:43.261Z,12.17
2018-11-13T08:06:43.234Z,12.21
2018-11-13T08:07:43.170Z,12.16
2018-11-13T08:08:43.158Z,12.17
2018-11-13T08:09:43.147Z,12.14
2018-11-13T08:10:43.148Z,12.21
2018-11-13T08:11:43.125Z,12.20
2018-11-13T08:12:43.154Z,12.21
2018-11-13T08:13:43.108Z,12.23
2018-11-13T08:14:43.092Z,12.23
2018-11-13T08:15:43.121Z,12.28
2018-11-13T08:16:43.076Z,12.24
2018-11-13T08:17:43.058Z,12.31
2018-11-13T08:18:43.061Z,12.27
2018-11-13T08:19:43.041Z,12.20
2018-11-13T08:20:43.037Z,12.28
2018-11-13T08:21:43.018Z,12.29
2018-11-13T08:22:43.003Z,12.27
2018-11-13T08:23:42.991Z,12.32
2018-11-13T08:24:42.991Z,12.31
2018-11-13T08:25:43.004Z,12.28
2018-11-13T08:26:42.957Z,12.21
2018-11-13T08:27:42.986Z,12.23
2018-11-13T08:28:42.962Z,12.17
2018-11-13T08:29:43.050Z,12.28
2018-11-13T08:30:42.927Z,12.23
2018-11-13T08:31:42.905Z,12.21
2018-11-13T08:32:42.894Z,12.23
2018-11-13T08:33:42.882Z,12.24
2018-11-13T08:34:42.901Z,12.23
2018-11-13T08:35:42.932Z,12.23
2018-11-13T08:36:42.871Z,12.17
2018-11-13T08:37:42.838Z,12.19
2018-11-13T08:38:42.839Z,12.13
2018-11-13T08:39:42.817Z,12.20
2018-11-13T08:40:42.827Z,12.17
2018-11-13T08:41:42.797Z,12.19
2018-11-13T08:42:42.797Z,12.19
2018-11-13T08:43:42.777Z,12.21
2018-11-13T08:44:42.761Z,12.14
2018-11-13T08:45:42.762Z,12.21
2018-11-13T08:46:42.745Z,12.20
2018-11-13T08:47:42.725Z,12.16
2018-11-13T08:48:42.734Z,12.23
2018-11-13T08:49:42.709Z,12.16
2018-11-13T08:50:42.720Z,12.19
2018-11-13T08:51:35.430Z,12.16
2018-11-13T08:52:35.419Z,12.24
2018-11-13T08:53:35.406Z,12.21
2018-11-13T08:54:35.398Z,12.19
2018-11-13T08:55:35.393Z,12.19
2018-11-13T08:56:35.376Z,12.14
2018-11-13T08:57:35.362Z,12.19
2018-11-13T08:58:35.448Z,12.19
2018-11-13T08:59:35.430Z,12.20
2018-11-13T09:00:35.339Z,12.16
2018-11-13T09:01:35.318Z,12.23
2018-11-13T09:02:35.308Z,12.16
2018-11-13T09:03:35.300Z,12.16
2018-11-13T09:04:35.290Z,12.23
2018-11-13T09:05:35.312Z,12.16
2018-11-13T09:06:35.266Z,12.16
2018-11-13T09:07:35.254Z,12.21
2018-11-13T09:08:35.239Z,12.17
2018-11-13T09:09:35.239Z,12.21
2018-11-13T09:10:35.244Z,12.16
2018-11-13T09:11:35.274Z,12.19
2018-11-13T09:12:35.200Z,12.21
2018-11-13T09:13:35.184Z,12.17
2018-11-13T09:14:35.171Z,12.17
2018-11-13T09:15:35.174Z,12.19
2018-11-13T09:16:35.155Z,12.20
2018-11-13T09:17:35.141Z,12.21
2018-11-13T09:18:35.131Z,12.17
2018-11-13T09:19:35.355Z,12.21
2018-11-13T09:20:35.107Z,12.14
2018-11-13T09:21:35.118Z,12.17
2018-11-13T09:22:35.092Z,12.14
2018-11-13T09:23:35.078Z,12.21
2018-11-13T09:24:35.062Z,12.16
2018-11-13T09:25:35.054Z,12.16
2018-11-13T09:26:35.049Z,12.17
2018-11-13T09:27:35.030Z,12.14
2018-11-13T09:28:35.017Z,12.16
2018-11-13T09:29:35.011Z,12.17
2018-11-13T09:30:35.156Z,12.21
2018-11-13T09:31:35.018Z,12.16
2018-11-13T09:32:34.970Z,12.20
2018-11-13T09:33:35.018Z,12.23
2018-11-13T09:34:34.947Z,12.21
2018-11-13T09:35:34.943Z,12.21
2018-11-13T09:36:34.934Z,12.21
2018-11-13T09:37:34.989Z,12.27
2018-11-13T09:38:34.903Z,12.27
2018-11-13T09:39:34.906Z,12.32
2018-11-13T09:40:34.877Z,12.32
2018-11-13T09:41:34.887Z,12.34
2018-11-13T09:42:34.855Z,12.32
2018-11-13T09:43:34.843Z,12.35
2018-11-13T09:44:34.866Z,12.35
2018-11-13T09:45:34.829Z,12.37
2018-11-13T09:46:34.820Z,12.31
2018-11-13T09:47:34.861Z,12.29
2018-11-13T09:48:34.789Z,12.39
2018-11-13T09:49:34.779Z,12.34
2018-11-13T09:50:34.823Z,12.42
2018-11-13T09:51:34.774Z,12.47
2018-11-13T09:52:34.750Z,12.39
2018-11-13T09:53:34.817Z,12.42
2018-11-13T09:54:34.724Z,12.52
2018-11-13T09:55:34.708Z,12.46
2018-11-13T09:56:34.770Z,12.54
2018-11-13T09:57:34.702Z,12.53
2018-11-13T09:58:34.733Z,12.54
2018-11-13T09:59:34.661Z,12.50
2018-11-13T10:00:34.896Z,12.47
2018-11-13T10:01:35.092Z,12.53
2018-11-13T10:02:35.158Z,12.56
2018-11-13T10:03:35.351Z,12.52
2018-11-13T10:04:35.247Z,12.56
2018-11-13T10:05:34.766Z,12.52
2018-11-13T10:06:34.626Z,12.56
2018-11-13T10:07:34.569Z,12.59
2018-11-13T10:08:34.575Z,12.50
2018-11-13T10:09:34.549Z,12.42
2018-11-13T10:10:34.589Z,12.47
2018-11-13T10:11:34.525Z,12.53
2018-11-13T10:12:34.526Z,12.47
2018-11-13T10:13:34.504Z,12.39
2018-11-13T10:14:34.500Z,12.52
2018-11-13T10:15:34.476Z,12.56
2018-11-13T10:16:34.470Z,12.45
2018-11-13T10:17:34.496Z,12.46
2018-11-13T10:18:34.446Z,12.54
2018-11-13T10:19:34.440Z,12.49
2018-11-13T10:20:34.421Z,12.54
2018-11-13T10:21:34.407Z,12.47
2018-11-13T10:22:34.406Z,12.45
2018-11-13T10:23:34.388Z,12.47
2018-11-13T10:24:34.376Z,12.47
2018-11-13T10:25:34.363Z,12.57
2018-11-13T10:26:34.501Z,12.59
2018-11-13T10:27:34.407Z,12.42
2018-11-13T10:28:34.328Z,12.50
2018-11-13T10:29:34.317Z,12.54
2018-11-13T10:30:34.312Z,12.47
2018-11-13T10:31:34.298Z,12.62
2018-11-13T10:32:34.305Z,12.56
2018-11-13T10:33:34.270Z,12.50
2018-11-13T10:34:34.262Z,12.52
2018-11-13T10:35:34.246Z,12.49
2018-11-13T10:36:34.238Z,12.56
2018-11-13T10:37:34.239Z,12.70
2018-11-13T10:38:34.221Z,12.52
2018-11-13T10:39:34.200Z,12.57
2018-11-13T10:40:34.323Z,12.60
2018-11-13T10:41:34.294Z,12.57
2018-11-13T10:42:34.188Z,12.60
2018-11-13T10:43:34.158Z,12.64
2018-11-13T10:44:34.383Z,12.68
2018-11-13T10:45:34.130Z,12.71
2018-11-13T10:46:34.120Z,12.74
2018-11-13T10:47:34.126Z,12.65
2018-11-13T10:48:34.109Z,12.86
2018-11-13T10:49:34.086Z,12.83
2018-11-13T10:50:34.075Z,12.85
2018-11-13T10:51:34.076Z,12.87
2018-11-13T10:52:34.062Z,12.85
2018-11-13T10:53:34.039Z,12.90
2018-11-13T10:54:34.035Z,12.96
2018-11-13T10:55:34.019Z,12.93
2018-11-13T10:56:34.040Z,12.96
2018-11-13T10:57:34.012Z,12.93
2018-11-13T10:58:33.990Z,12.92
2018-11-13T10:59:33.975Z,12.92
2018-11-13T11:00:33.969Z,12.96
2018-11-13T11:01:33.950Z,13.00
2018-11-13T11:02:34.024Z,13.07
2018-11-13T11:03:33.931Z,13.01
2018-11-13T11:04:33.930Z,13.07
2018-11-13T11:05:33.906Z,13.11
2018-11-13T11:06:33.894Z,13.08
2018-11-13T11:07:33.893Z,13.05
2018-11-13T11:08:33.875Z,13.17
2018-11-13T11:09:33.859Z,13.05
2018-11-13T11:10:33.864Z,13.07
2018-11-13T11:11:33.939Z,13.11
2018-11-13T11:12:33.846Z,13.04
2018-11-13T11:13:33.925Z,13.12
2018-11-13T11:14:33.825Z,13.11
2018-11-13T11:15:33.795Z,13.04
2018-11-13T11:16:33.792Z,13.04
2018-11-13T11:17:33.781Z,13.08
2018-11-13T11:18:33.790Z,13.08
2018-11-13T11:19:33.850Z,13.11
2018-11-13T11:20:33.735Z,13.00
2018-11-13T11:21:33.736Z,13.14
2018-11-13T11:22:33.729Z,13.07
2018-11-13T11:23:33.862Z,13.11
2018-11-13T11:24:33.696Z,13.07
2018-11-13T11:25:33.683Z,13.15
2018-11-13T11:26:33.743Z,13.07
2018-11-13T11:27:33.670Z,13.05
2018-11-13T11:28:33.647Z,13.10
2018-11-13T11:29:33.640Z,13.15
2018-11-13T11:30:33.637Z,13.20
2018-11-13T11:31:33.633Z,13.22
2018-11-13T11:32:33.640Z,13.20
2018-11-13T11:33:33.589Z,13.41
2018-11-13T11:34:33.581Z,13.33
2018-11-13T11:35:33.581Z,13.44
2018-11-13T11:36:33.561Z,13.44
2018-11-13T11:37:33.563Z,13.51
2018-11-13T11:38:33.604Z,13.46
2018-11-13T11:39:33.521Z,13.52
2018-11-13T11:40:33.521Z,13.45
2018-11-13T11:41:33.509Z,13.59
2018-11-13T11:42:33.514Z,13.60
2018-11-13T11:43:33.477Z,13.59
2018-11-13T11:44:33.500Z,13.63
2018-11-13T11:45:33.467Z,13.62
2018-11-13T11:46:33.441Z,13.49
2018-11-13T11:47:33.445Z,13.57
2018-11-13T11:48:33.453Z,13.62
2018-11-13T11:49:33.408Z,13.69
2018-11-13T11:50:33.397Z,13.71
2018-11-13T11:51:33.394Z,13.70
2018-11-13T11:52:33.394Z,13.69
2018-11-13T11:53:33.367Z,13.71
2018-11-13T11:54:33.357Z,13.66
2018-11-13T11:55:33.343Z,13.66
2018-11-13T11:56:33.329Z,13.62
2018-11-13T11:57:33.351Z,13.57
2018-11-13T11:58:33.311Z,13.44
2018-11-13T11:59:33.297Z,13.51
2018-11-13T12:00:33.321Z,13.55
2018-11-13T12:01:33.272Z,13.51
2018-11-13T12:02:33.275Z,13.51
2018-11-13T12:03:33.280Z,13.64
2018-11-13T12:04:33.300Z,13.49
2018-11-13T12:05:33.225Z,13.67
2018-11-13T12:06:33.217Z,13.63
2018-11-13T12:07:33.220Z,13.70
2018-11-13T12:08:33.228Z,13.63
2018-11-13T12:09:33.186Z,13.64
2018-11-13T12:10:33.188Z,13.64
2018-11-13T12:11:33.160Z,13.59
2018-11-13T12:12:33.168Z,13.62
2018-11-13T12:13:33.165Z,13.64
2018-11-13T12:14:33.130Z,13.69
2018-11-13T12:15:33.120Z,13.69
2018-11-13T12:16:33.123Z,13.82
2018-11-13T12:17:33.107Z,13.78
2018-11-13T12:18:33.083Z,13.88
2018-11-13T12:19:33.176Z,13.81
2018-11-13T12:20:33.069Z,13.81
2018-11-13T12:21:33.049Z,13.69
2018-11-13T12:22:33.051Z,13.70
2018-11-13T12:23:33.029Z,13.66
2018-11-13T12:24:33.011Z,13.63
2018-11-13T12:25:33.031Z,13.66
2018-11-13T12:26:32.991Z,13.64
2018-11-13T12:27:32.992Z,13.67
2018-11-13T12:28:32.970Z,13.70
2018-11-13T12:29:32.957Z,13.63
2018-11-13T12:30:32.951Z,13.67
2018-11-13T12:31:32.933Z,13.67
2018-11-13T12:32:32.935Z,13.64
2018-11-13T12:33:32.932Z,13.66
2018-11-13T12:34:32.933Z,13.69
2018-11-13T12:35:32.888Z,13.69
2018-11-13T12:36:32.877Z,13.69
2018-11-13T12:37:32.879Z,13.69
2018-11-13T12:38:32.852Z,13.71
2018-11-13T12:39:32.841Z,13.82
2018-11-13T12:40:32.854Z,13.73
2018-11-13T12:41:32.819Z,13.71
2018-11-13T12:42:32.824Z,13.75
2018-11-13T12:43:32.796Z,13.79
2018-11-13T12:44:32.787Z,13.77
2018-11-13T12:45:32.780Z,13.85
2018-11-13T12:46:32.829Z,13.88
2018-11-13T12:47:32.767Z,14.02
2018-11-13T12:48:32.760Z,13.99
2018-11-13T12:49:32.733Z,14.02
2018-11-13T12:50:32.735Z,14.15
2018-11-13T12:51:32.707Z,14.37
2018-11-13T12:52:32.721Z,14.65